Time;durP1;ratioP1;P1;durP2;ratioP2;P2;SDS_P1;SDS_P2;PMS_P1;PMS_P2;Temp;Humidity;BMP_temperature;BMP_pressure;BME280_temperature;BME280_humidity;BME280_pressure;Samples;Min_cycle;Max_cycle;Signal;HPM_P1;HPM_P2
2024/04/04 00:03:28;;;;;;;2.25;1.33;;;;;;;10.07;78.69;99568.63;10499514;28;20093;-75
2024/04/04 00:08:29;;;;;;;6.53;1.85;;;;;;;10.10;78.52;99568.34;10461050;28;20045;-75
2024/04/04 00:13:29;;;;;;;1.92;0.90;;;;;;;9.67;78.69;99580.25;10489239;28;20032;-75
2024/04/04 00:18:31;;;;;;;1.55;1.00;;;;;;;9.93;77.90;99570.72;10489910;28;20064;-75
2024/04/04 00:23:32;;;;;;;3.63;1.50;;;;;;;9.79;77.48;99595.25;10486113;28;20041;-75
2024/04/04 00:28:34;;;;;;;3.40;0.80;;;;;;;9.90;76.58;99571.00;10472969;28;20032;-75
2024/04/04 00:33:35;;;;;;;;;;;;;;;9.80;75.65;99583.53;10494626;28;20119;-75
2024/04/04 00:38:36;;;;;;;1.95;0.80;;;;;;;9.59;76.70;99575.56;10463354;28;19920;-74
2024/04/04 00:43:37;;;;;;;2.60;1.00;;;;;;;9.46;76.32;99583.00;10455506;28;20864;-75
2024/04/04 00:48:38;;;;;;;5.70;1.47;;;;;;;9.71;75.86;99579.84;10471921;28;20818;-75
2024/04/04 00:53:39;;;;;;;7.50;1.23;;;;;;;9.45;76.98;99587.53;10466910;28;20094;-75
2024/04/04 00:58:40;;;;;;;4.97;0.88;;;;;;;9.63;75.36;99576.16;10490207;28;20048;-75
2024/04/04 01:03:41;;;;;;;6.25;1.20;;;;;;;9.41;76.05;99586.13;10498568;28;20040;-75
2024/04/04 01:08:42;;;;;;;2.50;1.02;;;;;;;9.61;75.22;99578.13;10504017;28;20086;-75
2024/04/04 01:13:42;;;;;;;4.50;0.85;;;;;;;9.07;76.40;99590.91;10466491;28;20036;-75
2024/04/04 01:18:43;;;;;;;7.05;1.05;;;;;;;9.48;76.37;99592.59;10478852;28;20454;-75
2024/04/04 01:23:44;;;;;;;7.40;1.45;;;;;;;9.57;75.20;99587.41;10490608;28;20051;-75
2024/04/04 01:28:45;;;;;;;4.53;1.02;;;;;;;9.26;76.11;99592.81;10497328;28;20060;-75
2024/04/04 01:33:45;;;;;;;4.88;0.85;;;;;;;9.49;74.93;99597.00;10503289;28;20036;-75
2024/04/04 01:38:46;;;;;;;5.55;0.85;;;;;;;9.49;75.36;99597.00;10509620;28;20121;-75
2024/04/04 01:43:47;;;;;;;3.55;1.02;;;;;;;9.12;76.42;99590.50;10515540;28;20040;-75
2024/04/04 01:48:47;;;;;;;4.65;1.35;;;;;;;9.28;76.12;99588.19;10494215;28;20063;-75
2024/04/04 01:53:48;;;;;;;3.20;0.80;;;;;;;9.00;77.23;99605.84;10503399;28;20139;-75
2024/04/04 01:58:49;;;;;;;3.65;0.85;;;;;;;9.45;75.06;99584.84;10498052;28;20047;-75
2024/04/04 02:10:38;;;;;;;6.82;1.00;;;;;;;9.61;74.18;99587.00;10528806;28;20044;-75
2024/04/04 02:15:39;;;;;;;6.63;1.30;;;;;;;9.50;74.75;99574.56;10475579;28;20040;-75
2024/04/04 02:20:40;;;;;;;1.38;0.80;;;;;;;9.37;74.90;99573.94;10482750;28;20064;-75
2024/04/04 02:25:42;;;;;;;8.43;1.17;;;;;;;9.38;74.58;99564.06;10492766;28;20502;-75
2024/04/04 02:30:43;;;;;;;5.80;1.30;;;;;;;9.16;75.65;99576.72;10499016;28;20502;-75
2024/04/04 02:35:53;;;;;;;3.75;1.17;;;;;;;9.53;74.10;99553.84;10508346;28;20334;-75
2024/04/04 02:40:54;;;;;;;7.22;1.30;;;;;;;9.39;74.37;99557.75;10482657;28;20079;-76
2024/04/04 02:46:03;;;;;;;6.78;1.55;;;;;;;9.41;74.30;99556.63;10475551;28;20052;-75
2024/04/04 02:51:04;;;;;;;5.38;1.73;;;;;;;9.27;74.92;99557.84;10481014;28;20130;-75
2024/04/04 02:56:05;;;;;;;6.70;1.33;;;;;;;9.15;75.57;99547.38;10487624;28;20041;-75
2024/04/04 03:01:05;;;;;;;6.68;0.90;;;;;;;8.98;76.30;99543.50;10493906;28;20036;-75
2024/04/04 03:06:06;;;;;;;10.70;1.30;;;;;;;9.01;76.54;99537.88;10496515;28;20059;-75
2024/04/04 03:11:07;;;;;;;7.35;0.93;;;;;;;8.87;77.45;99535.56;10479021;28;20052;-75
2024/04/04 03:16:07;;;;;;;5.10;1.50;;;;;;;8.73;78.31;99537.59;10457314;28;20120;-75
2024/04/04 03:21:08;;;;;;;5.15;1.20;;;;;;;8.78;78.08;99538.06;10478873;28;20144;-75
2024/04/04 03:26:09;;;;;;;8.32;1.30;;;;;;;8.69;78.26;99543.34;10488083;28;20045;-75
2024/04/04 03:31:10;;;;;;;7.80;1.13;;;;;;;8.81;77.96;99536.94;10491363;28;20044;-75
2024/04/04 03:36:10;;;;;;;3.00;0.90;;;;;;;8.85;77.94;99527.66;10468552;28;20060;-75
2024/04/04 03:41:11;;;;;;;5.38;2.17;;;;;;;8.94;77.64;99520.63;10477764;28;20086;-75
2024/04/04 03:46:12;;;;;;;4.68;1.33;;;;;;;8.97;77.89;99515.03;10472597;28;20114;-76
2024/04/04 03:51:13;;;;;;;5.28;1.52;;;;;;;9.05;77.51;99499.09;10491779;28;20048;-76
2024/04/04 03:56:13;;;;;;;7.80;1.90;;;;;;;9.01;77.74;99503.03;10498219;28;20078;-76
2024/04/04 04:01:14;;;;;;;2.72;0.95;;;;;;;8.98;77.82;99508.69;10492422;28;20059;-76
2024/04/04 04:06:15;;;;;;;8.02;2.05;;;;;;;8.88;78.52;99508.63;10485865;28;20535;-76
2024/04/04 04:11:16;;;;;;;6.68;1.20;;;;;;;8.75;82.06;99508.00;10478808;28;20040;-76
2024/04/04 04:16:17;;;;;;;4.88;1.67;;;;;;;8.72;83.79;99497.56;10473519;28;20060;-76
2024/04/04 04:21:20;;;;;;;12.07;2.17;;;;;;;8.73;83.14;99491.25;10477155;28;20134;-76
2024/04/04 04:26:21;;;;;;;4.78;1.20;;;;;;;8.78;81.14;99492.53;10484512;28;20041;-76
2024/04/04 04:31:28;;;;;;;3.67;0.90;;;;;;;9.10;79.79;99479.94;10490764;28;20040;-77
2024/04/04 04:37:07;;;;;;;6.88;1.00;;;;;;;9.28;78.91;99470.28;10487339;28;20040;-76
2024/04/04 04:42:09;;;;;;;6.65;1.20;;;;;;;9.40;78.45;99461.09;10479409;28;20040;-76
2024/04/04 04:47:09;;;;;;;8.43;1.88;;;;;;;9.30;77.84;99457.59;10456986;28;20040;-76
2024/04/04 04:52:10;;;;;;;3.05;0.90;;;;;;;9.52;77.96;99451.13;10465002;28;20055;-76
2024/04/04 04:57:11;;;;;;;4.70;0.88;;;;;;;9.28;80.98;99448.81;10503520;28;20048;-76
2024/04/04 05:02:15;;;;;;;5.65;1.23;;;;;;;9.19;82.49;99445.16;10483964;28;20062;-76
2024/04/04 05:07:15;;;;;;;5.85;1.27;;;;;;;9.10;83.84;99442.44;10493881;28;20045;-76
2024/04/04 05:12:16;;;;;;;5.80;1.10;;;;;;;9.14;84.63;99428.66;10463910;28;20135;-76
2024/04/04 05:17:17;;;;;;;3.17;1.10;;;;;;;9.24;86.13;99420.59;10480440;28;20106;-76
2024/04/04 05:22:18;;;;;;;2.85;1.00;;;;;;;9.26;86.90;99402.56;10467950;28;20055;-76
2024/04/04 05:27:18;;;;;;;4.97;1.52;;;;;;;9.24;86.57;99404.53;10500818;28;20063;-76
2024/04/04 05:32:19;;;;;;;2.47;0.68;;;;;;;9.31;86.51;99411.03;10500563;28;20494;-77
2024/04/04 05:37:20;;;;;;;5.95;1.25;;;;;;;9.29;86.52;99403.13;10475794;28;20052;-76
2024/04/04 05:42:21;;;;;;;3.50;1.10;;;;;;;9.32;86.91;99393.09;10484980;28;20657;-76
2024/04/04 05:47:22;;;;;;;4.60;0.90;;;;;;;9.22;87.96;99396.63;10509751;28;20035;-76
2024/04/04 05:52:22;;;;;;;2.13;0.60;;;;;;;9.16;89.67;99399.00;10513088;28;20035;-76
2024/04/04 05:57:23;;;;;;;6.18;1.40;;;;;;;9.19;94.85;99406.81;10506454;28;20047;-76
2024/04/04 06:02:24;;;;;;;3.25;1.20;;;;;;;8.83;100.00;99396.59;10496174;28;20046;-76
2024/04/04 06:07:25;;;;;;;4.93;1.35;;;;;;;8.65;100.00;99392.00;10486127;28;20063;-77
2024/04/04 06:12:25;;;;;;;2.47;1.20;;;;;;;8.59;100.00;99375.50;10485365;28;20036;-77
2024/04/04 06:17:26;;;;;;;5.10;1.67;;;;;;;8.77;100.00;99364.13;10477684;28;20049;-77
2024/04/04 06:22:27;;;;;;;4.63;1.90;;;;;;;8.97;100.00;99357.84;10463869;28;20040;-77
2024/04/04 06:27:27;;;;;;;5.68;1.52;;;;;;;9.01;100.00;99340.50;10488210;28;20044;-77
2024/04/04 06:32:28;;;;;;;4.68;1.83;;;;;;;8.96;100.00;99341.91;10474911;28;20044;-77
2024/04/04 06:37:30;;;;;;;3.40;1.70;;;;;;;9.10;100.00;99332.59;10486159;28;20044;-77
2024/04/04 06:42:32;;;;;;;6.38;2.20;;;;;;;9.14;100.00;99331.34;10482599;28;20036;-76
2024/04/04 06:47:33;;;;;;;8.90;2.60;;;;;;;9.27;100.00;99315.84;10488419;28;20478;-76
2024/04/04 06:52:34;;;;;;;6.88;2.50;;;;;;;9.22;100.00;99323.47;10511090;28;20326;-76
2024/04/04 06:57:35;;;;;;;8.25;2.53;;;;;;;9.13;100.00;99311.72;10520161;28;20036;-75
2024/04/04 07:02:35;;;;;;;4.47;2.15;;;;;;;9.18;100.00;99301.44;10497386;28;20071;-77
2024/04/04 07:07:37;;;;;;;4.75;2.50;;;;;;;9.56;100.00;99297.03;10478010;28;20047;-76
2024/04/04 07:12:37;;;;;;;4.85;2.40;;;;;;;9.63;100.00;99295.47;10504546;28;20039;-77
2024/04/04 07:17:38;;;;;;;3.85;2.50;;;;;;;9.63;100.00;99284.75;10481148;28;20051;-77
2024/04/04 07:22:39;;;;;;;3.17;2.63;;;;;;;9.85;100.00;99282.72;10497925;28;20123;-77
2024/04/04 07:27:40;;;;;;;4.85;2.53;;;;;;;9.82;100.00;99281.16;10485039;28;20040;-78
2024/04/04 07:32:40;;;;;;;5.68;2.65;;;;;;;9.89;100.00;99271.53;10504827;28;20056;-77
2024/04/04 07:37:41;;;;;;;4.60;3.03;;;;;;;9.87;100.00;99273.56;10486933;28;20047;-77
2024/04/04 07:42:45;;;;;;;5.82;2.60;;;;;;;9.93;100.00;99270.28;10492720;28;20044;-78
2024/04/04 07:47:46;;;;;;;4.03;2.45;;;;;;;9.91;100.00;99263.38;10494992;28;20051;-77
2024/04/04 07:52:51;;;;;;;6.95;2.80;;;;;;;10.04;100.00;99253.16;10491057;28;20071;-78
2024/04/04 07:57:52;;;;;;;4.72;2.92;;;;;;;10.04;100.00;99249.59;10509200;28;20044;-77
2024/04/04 08:02:53;;;;;;;8.23;3.00;;;;;;;9.86;100.00;99252.22;10509757;28;20051;-77
2024/04/04 08:07:54;;;;;;;6.63;2.70;;;;;;;10.11;100.00;99246.19;10496020;28;20103;-77
2024/04/04 08:12:55;;;;;;;5.28;2.80;;;;;;;10.03;100.00;99251.44;10511434;28;20123;-77
2024/04/04 08:17:56;;;;;;;7.40;2.37;;;;;;;10.37;100.00;99243.66;10505267;28;20550;-77
2024/04/04 08:22:58;;;;;;;3.17;2.58;;;;;;;10.36;100.00;99241.09;10501886;28;20048;-77
2024/04/04 08:27:59;;;;;;;6.53;2.97;;;;;;;10.34;100.00;99254.69;10495879;28;20043;-77
2024/04/04 08:33:00;;;;;;;5.18;2.72;;;;;;;10.66;100.00;99244.44;10525805;28;20522;-76
2024/04/04 08:38:00;;;;;;;2.58;2.17;;;;;;;10.82;100.00;99236.53;10506707;28;20094;-77
2024/04/04 08:43:01;;;;;;;8.68;2.22;;;;;;;10.90;100.00;99233.09;10515827;28;20063;-78
2024/04/04 08:48:04;;;;;;;2.78;1.90;;;;;;;10.77;100.00;99223.56;10518643;28;20048;-78
2024/04/04 08:53:06;;;;;;;2.85;2.00;;;;;;;10.93;100.00;99213.97;10507272;28;20044;-79
2024/04/04 08:58:08;;;;;;;5.22;1.90;;;;;;;11.10;100.00;99196.97;10483006;28;20503;-78
2024/04/04 09:03:12;;;;;;;;;;;;;;;11.25;100.00;99202.66;10517311;28;20526;-80
2024/04/04 09:08:14;;;;;;;4.00;1.95;;;;;;;11.16;100.00;99195.53;10522732;28;19932;-78
2024/04/04 09:13:15;;;;;;;3.17;1.88;;;;;;;10.87;100.00;99204.69;10505886;28;20399;-79
2024/04/04 09:18:16;;;;;;;3.65;1.88;;;;;;;11.01;100.00;99197.91;10514954;28;20037;-80
2024/04/04 09:23:17;;;;;;;5.47;2.10;;;;;;;11.02;100.00;99199.59;10475042;28;20040;-77
2024/04/04 09:28:19;;;;;;;4.32;1.98;;;;;;;10.95;100.00;99207.44;10497170;28;20071;-80
2024/04/04 09:33:22;;;;;;;8.93;1.95;;;;;;;11.04;100.00;99203.81;10508003;28;20028;-76
2024/04/04 09:38:22;;;;;;;;;;;;;;;11.17;100.00;99195.38;10488280;28;20116;-76
2024/04/04 09:43:26;;;;;;;4.43;1.30;;;;;;;10.86;100.00;99202.13;10480196;28;19920;-79
2024/04/04 09:48:27;;;;;;;4.80;1.63;;;;;;;10.74;100.00;99199.69;10502032;28;20055;-76
2024/04/04 09:53:28;;;;;;;0.93;0.43;;;;;;;9.95;100.00;99200.38;10516982;28;20036;-78
2024/04/04 09:58:29;;;;;;;1.20;0.45;;;;;;;9.89;100.00;99209.03;10497810;28;20040;-77
2024/04/04 10:03:33;;;;;;;2.92;0.43;;;;;;;9.93;100.00;99207.75;10490663;28;20457;-77
2024/04/04 10:08:34;;;;;;;0.30;0.30;;;;;;;9.91;100.00;99180.22;10511676;28;20074;-76
2024/04/04 10:13:35;;;;;;;0.47;0.45;;;;;;;10.29;100.00;99179.13;10500544;28;20050;-78
2024/04/04 10:18:46;;;;;;;1.58;0.40;;;;;;;10.19;100.00;99220.44;10516033;28;20048;-77
2024/04/04 10:23:53;;;;;;;0.60;0.40;;;;;;;10.30;100.00;99210.34;10474274;28;20044;-77
2024/04/04 10:28:54;;;;;;;0.50;0.40;;;;;;;10.56;100.00;99223.88;10484915;28;20082;-75
2024/04/04 10:34:02;;;;;;;0.60;0.52;;;;;;;10.94;100.00;99237.13;10496345;28;20036;-76
2024/04/04 10:39:09;;;;;;;1.02;0.60;;;;;;;10.47;100.00;99245.41;10497863;28;20048;-76
2024/04/04 10:44:12;;;;;;;1.20;0.65;;;;;;;10.49;100.00;99252.31;10482528;28;20082;-76
2024/04/04 10:49:13;;;;;;;3.30;0.60;;;;;;;10.49;100.00;99249.63;10468742;28;20058;-77
2024/04/04 10:54:15;;;;;;;0.70;0.60;;;;;;;10.99;100.00;99251.78;10499653;28;20071;-76
2024/04/04 10:59:18;;;;;;;1.70;0.60;;;;;;;11.03;100.00;99269.31;10478807;28;20067;-76
2024/04/04 11:04:19;;;;;;;0.85;0.68;;;;;;;11.64;100.00;99259.53;10495235;28;20045;-78
2024/04/04 11:09:23;;;;;;;1.88;0.80;;;;;;;11.38;100.00;99259.56;10480567;28;20115;-76
2024/04/04 11:14:24;;;;;;;1.65;1.55;;;;;;;11.74;100.00;99305.19;10502022;28;20494;-78
2024/04/04 11:19:26;;;;;;;2.08;1.13;;;;;;;11.38;100.00;99285.56;10493954;28;20040;-78
2024/04/04 11:24:28;;;;;;;2.63;1.75;;;;;;;11.98;100.00;99258.72;10501295;28;20039;-77
2024/04/04 11:29:29;;;;;;;;;;;;;;;12.17;100.00;99265.69;10477373;28;20420;-77
2024/04/04 11:34:30;;;;;;;1.48;0.93;;;;;;;11.86;100.00;99268.91;10483630;28;19920;-77
2024/04/04 11:39:31;;;;;;;1.70;1.27;;;;;;;12.19;100.00;99273.63;10491385;28;20047;-78
2024/04/04 11:44:32;;;;;;;4.38;1.95;;;;;;;12.17;100.00;99282.69;10503730;28;20044;-78
2024/04/04 11:49:33;;;;;;;5.25;1.77;;;;;;;12.52;100.00;99263.84;10514497;28;20037;-79
2024/04/04 11:54:34;;;;;;;2.85;1.08;;;;;;;12.27;98.43;99270.97;10507548;28;20502;-79
2024/04/04 11:59:36;;;;;;;3.78;1.50;;;;;;;12.87;93.65;99267.28;10497360;28;20071;-79
2024/04/04 12:04:43;;;;;;;5.47;1.38;;;;;;;12.58;94.07;99271.25;10499888;28;20090;-78
2024/04/04 12:09:44;;;;;;;3.00;1.10;;;;;;;12.51;93.17;99273.78;10509662;28;20048;-77
2024/04/04 12:14:45;;;;;;;2.38;0.80;;;;;;;12.55;88.07;99285.06;10516627;28;20044;-78
2024/04/04 12:19:45;;;;;;;0.82;0.60;;;;;;;12.41;88.73;99285.69;10492725;28;20102;-77
2024/04/04 12:24:46;;;;;;;8.18;0.95;;;;;;;12.23;84.31;99297.38;10506649;28;20063;-78
2024/04/04 12:29:47;;;;;;;2.80;0.77;;;;;;;12.32;83.81;99312.59;10520334;28;20044;-78
2024/04/04 12:34:47;;;;;;;2.17;0.60;;;;;;;12.01;81.78;99282.59;10502297;28;20059;-78
2024/04/04 12:39:48;;;;;;;1.67;0.40;;;;;;;12.30;80.78;99306.50;10503981;28;20045;-76
2024/04/04 12:44:49;;;;;;;1.52;0.65;;;;;;;12.43;79.62;99289.06;10506748;28;20183;-78
2024/04/04 12:49:50;;;;;;;1.70;0.63;;;;;;;14.11;75.02;99313.75;10498603;28;20537;-78
2024/04/04 12:54:50;;;;;;;2.58;0.55;;;;;;;14.29;71.42;99304.56;10488118;28;20045;-77
2024/04/04 12:59:51;;;;;;;1.73;0.70;;;;;;;13.84;73.59;99314.16;10481371;28;20157;-78
2024/04/04 13:04:52;;;;;;;4.40;0.80;;;;;;;14.10;69.48;99312.09;10479302;28;20056;-78
2024/04/04 13:09:54;;;;;;;4.95;1.25;;;;;;;13.74;71.77;99279.28;10510923;28;20123;-78
2024/04/04 13:14:54;;;;;;;2.07;0.60;;;;;;;14.18;70.27;99322.03;10515990;28;20043;-78
2024/04/04 13:19:55;;;;;;;2.72;0.52;;;;;;;13.68;69.54;99353.63;10515916;28;20380;-78
2024/04/04 13:24:57;;;;;;;1.50;0.82;;;;;;;13.87;68.30;99336.25;10505503;28;20035;-78
2024/04/04 13:29:57;;;;;;;1.45;0.80;;;;;;;13.42;72.72;99323.31;10519022;28;20044;-79
2024/04/04 13:34:58;;;;;;;2.20;0.93;;;;;;;13.16;69.74;99320.72;10517496;28;20040;-79
2024/04/04 13:39:59;;;;;;;0.88;0.65;;;;;;;13.33;67.99;99346.72;10520788;28;20622;-79
2024/04/04 13:45:00;;;;;;;4.90;1.00;;;;;;;13.04;70.11;99329.13;10513046;28;20064;-78
2024/04/04 13:50:02;;;;;;;3.38;0.60;;;;;;;13.41;66.10;99345.88;10523215;28;20036;-79
2024/04/04 13:55:03;;;;;;;0.45;0.45;;;;;;;13.64;65.95;99311.81;10490939;28;20045;-79
2024/04/04 14:00:06;;;;;;;1.65;0.63;;;;;;;13.76;64.43;99316.88;10511304;27;20038;-79
2024/04/04 14:05:10;;;;;;;0.90;0.63;;;;;;;13.93;64.52;99313.97;10508493;28;20458;-78
2024/04/04 14:10:11;;;;;;;2.13;0.80;;;;;;;13.90;63.07;99327.81;10500985;28;20079;-77
2024/04/04 14:15:12;;;;;;;3.92;0.90;;;;;;;14.58;61.73;99322.91;10516744;28;20032;-79
2024/04/04 14:20:13;;;;;;;3.75;0.77;;;;;;;15.47;57.98;99339.63;10496521;28;20044;-78
2024/04/04 14:25:14;;;;;;;1.70;0.93;;;;;;;14.90;60.46;99338.09;10511496;28;20461;-78
2024/04/04 14:30:15;;;;;;;2.17;0.50;;;;;;;15.46;57.76;99341.47;10504211;28;20044;-78
2024/04/04 14:35:16;;;;;;;1.95;0.63;;;;;;;14.21;61.18;99351.38;10502566;28;20040;-78
2024/04/04 14:40:17;;;;;;;4.78;0.98;;;;;;;13.92;60.73;99381.63;10499927;28;20139;-79
2024/04/04 14:45:17;;;;;;;4.07;0.55;;;;;;;15.06;57.39;99339.88;10501001;28;20044;-78
2024/04/04 14:50:18;;;;;;;2.05;0.60;;;;;;;13.89;61.73;99372.00;10484992;28;20056;-78
2024/04/04 14:55:20;;;;;;;1.48;0.68;;;;;;;13.78;61.97;99366.97;10494309;28;20498;-80
2024/04/04 15:00:21;;;;;;;3.33;0.80;;;;;;;13.98;61.89;99372.84;10476007;28;20044;-78
2024/04/04 15:05:22;;;;;;;2.00;0.82;;;;;;;12.91;64.92;99387.22;10473588;28;20044;-78
2024/04/04 15:10:23;;;;;;;2.97;0.57;;;;;;;12.75;67.53;99394.25;10488237;28;20048;-78
2024/04/04 15:15:23;;;;;;;5.47;0.63;;;;;;;12.24;71.79;99419.38;10502443;28;20040;-78
2024/04/04 15:20:25;;;;;;;4.07;0.88;;;;;;;11.91;81.55;99424.53;10508135;28;20052;-78
2024/04/04 15:25:26;;;;;;;3.08;0.82;;;;;;;11.14;83.86;99442.13;10495202;28;20028;-78
2024/04/04 15:30:28;;;;;;;2.83;0.73;;;;;;;10.96;88.59;99455.47;10511829;28;20040;-77
2024/04/04 15:35:30;;;;;;;1.58;0.60;;;;;;;10.57;89.22;99459.16;10523139;28;20044;-79
2024/04/04 15:40:30;;;;;;;2.55;0.57;;;;;;;11.30;82.86;99455.75;10544104;28;20170;-79
2024/04/04 15:45:32;;;;;;;2.70;0.50;;;;;;;11.55;80.73;99458.69;10514483;28;20058;-78
2024/04/04 15:50:33;;;;;;;3.17;0.90;;;;;;;11.47;82.54;99456.75;10521747;28;20047;-78
2024/04/04 15:55:34;;;;;;;0.95;0.60;;;;;;;11.82;78.44;99449.66;10513344;28;20309;-79
2024/04/04 16:00:36;;;;;;;3.67;0.60;;;;;;;12.64;77.87;99466.41;10496671;28;20556;-80
2024/04/04 16:05:38;;;;;;;3.72;0.98;;;;;;;12.35;77.21;99470.31;10512183;28;20036;-80
2024/04/04 16:10:38;;;;;;;1.02;0.47;;;;;;;11.60;78.78;99477.88;10506403;28;20453;-79
2024/04/04 16:15:39;;;;;;;2.95;0.60;;;;;;;12.39;75.60;99472.50;10503829;28;20052;-79
2024/04/04 16:20:40;;;;;;;8.68;2.35;;;;;;;12.23;74.82;99493.94;10505223;28;20507;-80
2024/04/04 16:25:41;;;;;;;1.75;0.43;;;;;;;11.46;78.16;99480.13;10493820;28;20048;-79
2024/04/04 16:36:13;;;;;;;1.98;0.57;;;;;;;12.37;74.62;99506.84;10812233;23;20797;-82
2024/04/04 16:41:14;;;;;;;5.10;0.65;;;;;;;13.29;71.77;99501.75;10254079;28;20374;-80
2024/04/04 16:46:17;;;;;;;3.17;0.98;;;;;;;13.20;71.48;99519.75;10228558;28;20039;-81
2024/04/04 16:51:17;;;;;;;6.15;0.93;;;;;;;11.96;76.90;99554.09;10231621;28;20043;-82
2024/04/04 16:56:18;;;;;;;4.47;0.73;;;;;;;11.67;79.34;99546.22;10239353;28;20122;-81
2024/04/04 17:01:20;;;;;;;4.30;0.88;;;;;;;11.53;79.86;99544.88;10240650;28;20141;-81
2024/04/04 17:06:20;;;;;;;4.82;1.00;;;;;;;11.57;80.34;99553.47;10242434;28;20459;-81
2024/04/04 17:11:25;;;;;;;4.18;0.95;;;;;;;11.71;80.64;99552.97;10248701;28;20098;-82
2024/04/04 17:16:26;;;;;;;6.78;1.40;;;;;;;11.50;81.17;99558.63;10239194;28;20303;-82
2024/04/04 17:21:27;;;;;;;4.07;0.80;;;;;;;11.63;80.01;99569.88;10244410;28;20114;-82
2024/04/04 17:26:27;;;;;;;6.97;1.33;;;;;;;11.83;79.53;99585.91;10248203;28;20098;-83
2024/04/04 17:31:28;;;;;;;7.90;1.35;;;;;;;11.19;83.37;99583.13;10247069;28;20050;-84
2024/04/04 17:36:29;;;;;;;6.80;1.40;;;;;;;11.73;80.09;99586.78;10234945;28;20030;-80
2024/04/04 17:41:30;;;;;;;4.88;0.90;;;;;;;11.18;83.22;99589.47;10250162;28;20075;-82
2024/04/04 17:46:31;;;;;;;6.55;0.80;;;;;;;11.24;82.07;99586.22;10241598;28;20027;-82
2024/04/04 17:51:32;;;;;;;3.45;1.00;;;;;;;11.43;82.76;99614.84;10227084;28;20044;-82
2024/04/04 17:56:33;;;;;;;13.65;1.92;;;;;;;11.44;83.62;99613.88;10225164;28;20039;-82
2024/04/04 18:01:33;;;;;;;6.03;1.17;;;;;;;11.33;85.37;99629.34;10217743;28;21063;-81
2024/04/04 18:06:34;;;;;;;5.45;1.50;;;;;;;11.45;85.89;99641.59;10226735;28;20050;-82
2024/04/04 18:11:35;;;;;;;5.47;1.65;;;;;;;11.16;87.78;99634.50;10221670;28;20041;-83
2024/04/04 18:16:36;;;;;;;12.63;2.45;;;;;;;11.11;88.95;99657.38;10235007;28;20121;-83
2024/04/04 18:21:37;;;;;;;6.50;1.88;;;;;;;11.16;88.44;99663.19;10232298;28;20043;-83
2024/04/04 18:26:39;;;;;;;9.90;2.42;;;;;;;11.31;88.31;99675.19;10241454;28;20123;-80
2024/04/04 18:31:40;;;;;;;7.15;1.75;;;;;;;10.93;91.17;99687.69;10255007;28;20054;-82
2024/04/04 18:36:40;;;;;;;14.15;3.30;;;;;;;10.94;93.05;99696.59;10245236;28;20047;-80
2024/04/04 18:41:41;;;;;;;7.97;1.98;;;;;;;10.88;93.40;99710.59;10252820;28;20035;-82
2024/04/04 18:46:43;;;;;;;3.70;1.42;;;;;;;10.73;93.78;99715.56;10245834;28;20527;-83
2024/04/04 18:51:44;;;;;;;8.23;2.20;;;;;;;10.96;92.62;99716.94;10250501;28;20054;-83
2024/04/04 18:56:45;;;;;;;10.95;2.75;;;;;;;11.44;88.93;99716.06;10237897;28;20048;-83
2024/04/04 19:01:45;;;;;;;7.60;1.95;;;;;;;11.39;88.64;99726.41;10231513;28;20047;-83
2024/04/04 19:06:49;;;;;;;9.85;2.30;;;;;;;11.36;88.78;99741.97;10258794;28;20039;-80
2024/04/04 19:11:49;;;;;;;9.00;2.20;;;;;;;10.87;92.52;99739.31;10210116;28;20067;-83
2024/04/04 19:16:50;;;;;;;12.18;2.70;;;;;;;11.36;89.33;99744.66;10226365;28;20047;-80
2024/04/04 19:21:51;;;;;;;7.70;2.30;;;;;;;11.08;92.30;99774.09;10232503;28;20083;-81
2024/04/04 19:26:51;;;;;;;9.80;2.58;;;;;;;11.01;93.50;99781.03;10231714;28;20044;-80
2024/04/04 19:31:53;;;;;;;11.85;2.97;;;;;;;11.24;93.04;99785.16;10238941;28;20061;-81
2024/04/04 19:36:53;;;;;;;12.63;2.67;;;;;;;10.86;97.94;99779.75;10219378;28;20040;-81
2024/04/04 19:41:55;;;;;;;16.75;2.97;;;;;;;10.69;99.22;99792.03;10224492;28;20043;-82
2024/04/04 19:46:57;;;;;;;16.35;4.28;;;;;;;11.30;94.86;99796.31;10211505;28;20061;-81
2024/04/04 19:51:58;;;;;;;17.03;3.60;;;;;;;10.90;96.87;99808.88;10231629;28;20050;-81
2024/04/04 19:56:58;;;;;;;13.70;4.43;;;;;;;11.25;95.86;99804.81;10236885;28;20306;-81
2024/04/04 20:01:59;;;;;;;14.15;3.72;;;;;;;11.37;93.99;99809.03;10214883;28;20138;-82
2024/04/04 20:07:00;;;;;;;15.40;4.55;;;;;;;10.98;98.05;99821.63;10241369;28;20090;-81
2024/04/04 20:12:01;;;;;;;15.95;3.70;;;;;;;11.30;95.28;99812.44;10221744;28;20043;-81
2024/04/04 20:17:01;;;;;;;14.65;4.30;;;;;;;11.33;95.48;99814.88;10228305;28;20054;-80
2024/04/04 20:22:04;;;;;;;12.68;3.80;;;;;;;11.11;96.93;99822.19;10219005;28;20058;-80
2024/04/04 20:27:05;;;;;;;17.17;4.38;;;;;;;11.46;94.12;99823.47;10254432;28;20049;-81
2024/04/04 20:32:06;;;;;;;18.70;4.65;;;;;;;11.19;95.46;99827.75;10228691;28;20427;-82
2024/04/04 20:37:06;;;;;;;15.38;4.00;;;;;;;11.16;95.95;99830.72;10203531;28;20113;-81
2024/04/04 20:42:07;;;;;;;12.90;4.55;;;;;;;10.84;100.00;99841.69;10244557;28;20043;-81
2024/04/04 20:47:08;;;;;;;15.80;5.30;;;;;;;10.89;99.66;99852.00;10236981;28;20062;-82
2024/04/04 20:52:11;;;;;;;17.73;4.63;;;;;;;11.22;96.39;99856.19;10242929;28;20118;-81
2024/04/04 20:57:11;;;;;;;;;;;;;;;11.02;97.62;99857.97;10236840;28;20103;-81
2024/04/04 21:02:12;;;;;;;15.07;4.15;;;;;;;11.13;96.42;99874.00;10233266;28;20393;-82
2024/04/04 21:07:13;;;;;;;16.02;4.55;;;;;;;10.99;98.08;99869.84;10230356;28;20069;-82
2024/04/04 21:12:14;;;;;;;21.70;5.15;;;;;;;11.09;96.60;99869.88;10248079;28;20052;-81
2024/04/04 21:17:15;;;;;;;17.27;4.28;;;;;;;11.17;96.15;99882.66;10224189;28;20047;-83
2024/04/04 21:22:16;;;;;;;19.10;4.17;;;;;;;11.22;94.37;99889.28;10219034;28;20043;-80
2024/04/04 21:27:18;;;;;;;17.85;3.33;;;;;;;10.98;95.95;99892.34;10240590;28;20503;-81
2024/04/04 21:32:18;;;;;;;23.17;4.32;;;;;;;11.23;93.79;99892.81;10234744;28;20054;-82
2024/04/04 21:37:19;;;;;;;17.40;3.85;;;;;;;11.01;95.82;99892.06;10222272;28;20064;-81
2024/04/04 21:42:21;;;;;;;16.17;3.55;;;;;;;11.11;93.46;99900.16;10223898;28;20047;-83
2024/04/04 21:47:22;;;;;;;19.17;4.05;;;;;;;11.15;93.21;99898.91;10243198;28;20051;-80
2024/04/04 21:52:23;;;;;;;23.80;4.65;;;;;;;11.24;91.77;99911.53;10242366;28;20048;-82
2024/04/04 21:57:24;;;;;;;22.83;4.78;;;;;;;11.48;89.69;99919.16;10251726;28;20047;-82
2024/04/04 22:02:25;;;;;;;23.60;4.50;;;;;;;11.38;90.67;99923.69;10234361;28;20054;-83
2024/04/04 22:07:26;;;;;;;26.30;4.38;;;;;;;11.30;90.94;99931.63;10233758;29;20043;-83
2024/04/04 22:12:26;;;;;;;19.08;3.83;;;;;;;11.27;91.76;99932.75;10231273;28;20485;-82
2024/04/04 22:17:27;;;;;;;31.88;5.40;;;;;;;11.44;90.16;99931.19;10235612;28;20051;-82
2024/04/04 22:22:29;;;;;;;25.00;3.92;;;;;;;11.18;92.13;99919.28;10221875;28;20110;-81
2024/04/04 22:27:30;;;;;;;25.42;5.50;;;;;;;11.71;88.31;99918.84;10234305;28;20055;-81
2024/04/04 22:32:31;;;;;;;19.48;4.63;;;;;;;11.69;88.81;99919.00;10233416;28;20047;-81
2024/04/04 22:37:32;;;;;;;21.30;4.50;;;;;;;11.53;89.46;99915.19;10250001;28;20754;-82
2024/04/04 22:42:32;;;;;;;24.02;4.32;;;;;;;11.38;90.30;99922.81;10224607;28;20054;-80
2024/04/04 22:47:33;;;;;;;25.42;4.25;;;;;;;11.34;89.62;99926.81;10234689;28;20047;-80
2024/04/04 22:52:34;;;;;;;22.15;5.13;;;;;;;10.97;91.73;99919.34;10231967;28;20065;-81
2024/04/04 22:57:35;;;;;;;14.23;4.60;;;;;;;11.36;89.31;99917.59;10240215;28;20051;-82
2024/04/04 23:02:36;;;;;;;23.08;4.53;;;;;;;11.36;89.52;99916.75;10217500;28;20352;-81
2024/04/04 23:07:37;;;;;;;22.67;4.93;;;;;;;11.18;91.38;99930.88;10245977;28;20040;-82
2024/04/04 23:12:38;;;;;;;24.67;5.33;;;;;;;11.17;91.17;99929.19;10235495;28;20050;-82
2024/04/04 23:17:39;;;;;;;21.48;4.53;;;;;;;11.10;91.53;99911.88;10220596;28;20035;-80
2024/04/04 23:22:39;;;;;;;19.05;5.20;;;;;;;10.96;91.34;99901.53;10230473;28;20039;-81
2024/04/04 23:27:40;;;;;;;22.08;6.07;;;;;;;10.96;91.02;99901.53;10222753;28;20043;-80
2024/04/04 23:32:41;;;;;;;22.15;6.07;;;;;;;10.89;90.84;99908.44;10233890;28;20043;-80